sensor_id;sensor_type;location;lat;lon;timestamp;P1;durP1;ratioP1;P2;durP2;ratioP2
28427;SDS011;15662;49.128;8.520;2023-02-01T00:01:13;5.78;;;3.50;;
28427;SDS011;15662;49.128;8.520;2023-02-01T00:03:42;3.92;;;3.30;;
28427;SDS011;15662;49.128;8.520;2023-02-01T00:06:10;4.88;;;3.42;;
28427;SDS011;15662;49.128;8.520;2023-02-01T00:08:38;6.15;;;3.85;;
28427;SDS011;15662;49.128;8.520;2023-02-01T00:11:09;5.82;;;3.60;;
28427;SDS011;15662;49.128;8.520;2023-02-01T00:13:39;4.55;;;3.35;;
28427;SDS011;15662;49.128;8.520;2023-02-01T00:16:09;4.88;;;3.60;;
28427;SDS011;15662;49.128;8.520;2023-02-01T00:18:49;5.18;;;3.80;;
28427;SDS011;15662;49.128;8.520;2023-02-01T00:21:19;4.43;;;3.50;;
28427;SDS011;15662;49.128;8.520;2023-02-01T00:23:48;5.97;;;3.65;;
28427;SDS011;15662;49.128;8.520;2023-02-01T00:26:19;5.30;;;3.80;;
28427;SDS011;15662;49.128;8.520;2023-02-01T00:28:57;4.78;;;3.38;;
28427;SDS011;15662;49.128;8.520;2023-02-01T00:31:26;4.57;;;3.40;;
28427;SDS011;15662;49.128;8.520;2023-02-01T00:33:56;3.60;;;3.30;;
28427;SDS011;15662;49.128;8.520;2023-02-01T00:36:24;4.57;;;3.53;;
28427;SDS011;15662;49.128;8.520;2023-02-01T00:38:52;4.57;;;3.75;;
28427;SDS011;15662;49.128;8.520;2023-02-01T00:41:20;4.65;;;3.55;;
28427;SDS011;15662;49.128;8.520;2023-02-01T00:43:49;3.47;;;3.15;;
28427;SDS011;15662;49.128;8.520;2023-02-01T00:46:18;4.85;;;2.90;;
28427;SDS011;15662;49.128;8.520;2023-02-01T00:48:48;5.10;;;3.63;;
28427;SDS011;15662;49.128;8.520;2023-02-01T00:51:20;4.70;;;3.33;;
28427;SDS011;15662;49.128;8.520;2023-02-01T00:53:51;4.63;;;3.20;;
28427;SDS011;15662;49.128;8.520;2023-02-01T00:56:20;4.50;;;3.47;;
28427;SDS011;15662;49.128;8.520;2023-02-01T00:58:48;3.42;;;3.13;;
28427;SDS011;15662;49.128;8.520;2023-02-01T01:01:18;3.38;;;3.08;;
28427;SDS011;15662;49.128;8.520;2023-02-01T01:03:51;4.65;;;3.35;;
28427;SDS011;15662;49.128;8.520;2023-02-01T01:06:26;4.18;;;3.03;;
28427;SDS011;15662;49.128;8.520;2023-02-01T01:08:57;3.40;;;3.10;;
28427;SDS011;15662;49.128;8.520;2023-02-01T01:11:28;4.80;;;3.17;;
28427;SDS011;15662;49.128;8.520;2023-02-01T01:13:59;4.05;;;3.20;;
28427;SDS011;15662;49.128;8.520;2023-02-01T01:16:28;3.65;;;3.10;;
28427;SDS011;15662;49.128;8.520;2023-02-01T01:18:58;3.95;;;3.10;;
28427;SDS011;15662;49.128;8.520;2023-02-01T01:21:27;4.80;;;3.25;;
28427;SDS011;15662;49.128;8.520;2023-02-01T01:23:56;2.67;;;2.30;;
28427;SDS011;15662;49.128;8.520;2023-02-01T01:26:26;4.35;;;3.33;;
28427;SDS011;15662;49.128;8.520;2023-02-01T01:28:56;3.05;;;2.72;;
28427;SDS011;15662;49.128;8.520;2023-02-01T01:31:26;4.43;;;2.78;;
28427;SDS011;15662;49.128;8.520;2023-02-01T01:33:56;3.78;;;3.40;;
28427;SDS011;15662;49.128;8.520;2023-02-01T01:38:55;3.33;;;2.75;;
28427;SDS011;15662;49.128;8.520;2023-02-01T01:41:24;3.38;;;2.88;;
28427;SDS011;15662;49.128;8.520;2023-02-01T01:46:35;4.72;;;3.03;;
28427;SDS011;15662;49.128;8.520;2023-02-01T01:49:09;3.33;;;2.67;;
28427;SDS011;15662;49.128;8.520;2023-02-01T01:54:29;3.53;;;2.70;;
28427;SDS011;15662;49.128;8.520;2023-02-01T01:57:09;4.72;;;2.88;;
28427;SDS011;15662;49.128;8.520;2023-02-01T01:59:54;3.03;;;2.55;;
28427;SDS011;15662;49.128;8.520;2023-02-01T02:02:39;3.00;;;2.65;;
28427;SDS011;15662;49.128;8.520;2023-02-01T02:05:10;2.50;;;2.30;;
28427;SDS011;15662;49.128;8.520;2023-02-01T02:07:40;2.53;;;2.30;;
28427;SDS011;15662;49.128;8.520;2023-02-01T02:10:13;2.83;;;2.30;;
28427;SDS011;15662;49.128;8.520;2023-02-01T02:12:44;2.30;;;2.10;;
28427;SDS011;15662;49.128;8.520;2023-02-01T02:15:15;2.22;;;2.03;;
28427;SDS011;15662;49.128;8.520;2023-02-01T02:39:08;2.38;;;1.90;;
28427;SDS011;15662;49.128;8.520;2023-02-01T02:45:04;3.10;;;1.90;;
28427;SDS011;15662;49.128;8.520;2023-02-01T02:48:48;2.35;;;1.92;;
28427;SDS011;15662;49.128;8.520;2023-02-01T02:51:52;1.80;;;1.70;;
28427;SDS011;15662;49.128;8.520;2023-02-01T02:55:04;1.85;;;1.75;;
28427;SDS011;15662;49.128;8.520;2023-02-01T02:57:37;3.17;;;1.75;;
28427;SDS011;15662;49.128;8.520;2023-02-01T03:00:28;1.90;;;1.80;;
28427;SDS011;15662;49.128;8.520;2023-02-01T03:03:18;2.40;;;1.90;;
28427;SDS011;15662;49.128;8.520;2023-02-01T03:06:07;2.17;;;1.90;;
28427;SDS011;15662;49.128;8.520;2023-02-01T03:08:44;2.40;;;2.20;;
28427;SDS011;15662;49.128;8.520;2023-02-01T03:11:13;1.90;;;1.73;;
28427;SDS011;15662;49.128;8.520;2023-02-01T03:13:54;2.25;;;2.05;;
28427;SDS011;15662;49.128;8.520;2023-02-01T03:16:28;1.92;;;1.83;;
28427;SDS011;15662;49.128;8.520;2023-02-01T03:22:19;2.50;;;2.00;;
28427;SDS011;15662;49.128;8.520;2023-02-01T03:24:37;1.90;;;1.80;;
28427;SDS011;15662;49.128;8.520;2023-02-01T03:27:30;1.90;;;1.80;;
28427;SDS011;15662;49.128;8.520;2023-02-01T03:30:18;1.60;;;1.50;;
28427;SDS011;15662;49.128;8.520;2023-02-01T03:32:51;1.52;;;1.40;;
28427;SDS011;15662;49.128;8.520;2023-02-01T03:38:23;2.53;;;1.67;;
28427;SDS011;15662;49.128;8.520;2023-02-01T03:41:15;1.80;;;1.70;;
28427;SDS011;15662;49.128;8.520;2023-02-01T03:43:47;2.13;;;1.88;;
28427;SDS011;15662;49.128;8.520;2023-02-01T03:47:02;1.73;;;1.63;;
28427;SDS011;15662;49.128;8.520;2023-02-01T03:49:45;1.70;;;1.60;;
28427;SDS011;15662;49.128;8.520;2023-02-01T03:55:08;1.85;;;1.75;;
28427;SDS011;15662;49.128;8.520;2023-02-01T03:57:41;1.73;;;1.52;;
28427;SDS011;15662;49.128;8.520;2023-02-01T04:00:20;1.70;;;1.60;;
28427;SDS011;15662;49.128;8.520;2023-02-01T04:02:52;3.00;;;1.90;;
28427;SDS011;15662;49.128;8.520;2023-02-01T04:05:20;2.20;;;1.90;;
28427;SDS011;15662;49.128;8.520;2023-02-01T04:07:55;2.22;;;1.90;;
28427;SDS011;15662;49.128;8.520;2023-02-01T04:10:23;3.45;;;1.88;;
28427;SDS011;15662;49.128;8.520;2023-02-01T04:12:52;3.75;;;1.92;;
28427;SDS011;15662;49.128;8.520;2023-02-01T04:15:19;2.83;;;1.70;;
28427;SDS011;15662;49.128;8.520;2023-02-01T04:17:47;1.90;;;1.80;;
28427;SDS011;15662;49.128;8.520;2023-02-01T04:20:15;1.98;;;1.80;;
28427;SDS011;15662;49.128;8.520;2023-02-01T04:22:43;2.63;;;1.90;;
28427;SDS011;15662;49.128;8.520;2023-02-01T04:25:11;2.05;;;1.73;;
28427;SDS011;15662;49.128;8.520;2023-02-01T04:27:39;2.20;;;2.00;;
28427;SDS011;15662;49.128;8.520;2023-02-01T04:30:08;1.80;;;1.70;;
28427;SDS011;15662;49.128;8.520;2023-02-01T04:32:39;2.33;;;1.90;;
28427;SDS011;15662;49.128;8.520;2023-02-01T04:35:07;2.33;;;1.90;;
28427;SDS011;15662;49.128;8.520;2023-02-01T04:37:35;4.13;;;2.58;;
28427;SDS011;15662;49.128;8.520;2023-02-01T04:40:03;5.88;;;3.75;;
28427;SDS011;15662;49.128;8.520;2023-02-01T04:42:32;6.63;;;4.25;;
28427;SDS011;15662;49.128;8.520;2023-02-01T04:45:00;3.97;;;3.00;;
28427;SDS011;15662;49.128;8.520;2023-02-01T04:47:28;2.95;;;2.70;;
28427;SDS011;15662;49.128;8.520;2023-02-01T04:49:56;4.57;;;2.20;;
28427;SDS011;15662;49.128;8.520;2023-02-01T04:52:24;6.65;;;2.63;;
28427;SDS011;15662;49.128;8.520;2023-02-01T04:54:52;2.50;;;2.30;;
28427;SDS011;15662;49.128;8.520;2023-02-01T04:57:23;2.67;;;2.47;;
28427;SDS011;15662;49.128;8.520;2023-02-01T04:59:51;2.63;;;2.38;;
28427;SDS011;15662;49.128;8.520;2023-02-01T05:02:19;3.17;;;2.22;;
28427;SDS011;15662;49.128;8.520;2023-02-01T05:04:47;3.03;;;2.20;;
28427;SDS011;15662;49.128;8.520;2023-02-01T05:07:14;2.28;;;2.05;;
28427;SDS011;15662;49.128;8.520;2023-02-01T05:09:42;2.95;;;2.30;;
28427;SDS011;15662;49.128;8.520;2023-02-01T05:12:12;3.00;;;2.72;;
28427;SDS011;15662;49.128;8.520;2023-02-01T05:14:58;3.17;;;2.88;;
28427;SDS011;15662;49.128;8.520;2023-02-01T05:17:26;2.65;;;2.45;;
28427;SDS011;15662;49.128;8.520;2023-02-01T05:19:54;2.88;;;2.35;;
28427;SDS011;15662;49.128;8.520;2023-02-01T05:22:22;2.80;;;2.60;;
28427;SDS011;15662;49.128;8.520;2023-02-01T05:24:49;2.83;;;2.55;;
28427;SDS011;15662;49.128;8.520;2023-02-01T05:27:17;2.40;;;2.17;;
28427;SDS011;15662;49.128;8.520;2023-02-01T05:29:45;2.30;;;2.10;;
28427;SDS011;15662;49.128;8.520;2023-02-01T05:32:13;2.50;;;2.30;;
28427;SDS011;15662;49.128;8.520;2023-02-01T05:34:49;2.38;;;2.15;;
28427;SDS011;15662;49.128;8.520;2023-02-01T05:37:17;3.05;;;2.38;;
28427;SDS011;15662;49.128;8.520;2023-02-01T05:39:45;2.40;;;2.20;;
28427;SDS011;15662;49.128;8.520;2023-02-01T05:42:13;2.50;;;2.30;;
28427;SDS011;15662;49.128;8.520;2023-02-01T05:44:41;3.42;;;2.30;;
28427;SDS011;15662;49.128;8.520;2023-02-01T05:47:09;2.67;;;2.42;;
28427;SDS011;15662;49.128;8.520;2023-02-01T05:49:37;3.40;;;2.30;;
28427;SDS011;15662;49.128;8.520;2023-02-01T05:52:05;5.32;;;2.60;;
28427;SDS011;15662;49.128;8.520;2023-02-01T05:54:33;3.38;;;2.22;;
28427;SDS011;15662;49.128;8.520;2023-02-01T05:57:01;3.03;;;2.30;;
28427;SDS011;15662;49.128;8.520;2023-02-01T05:59:29;3.95;;;2.40;;
28427;SDS011;15662;49.128;8.520;2023-02-01T06:01:57;3.22;;;2.67;;
28427;SDS011;15662;49.128;8.520;2023-02-01T06:04:24;4.38;;;2.55;;
28427;SDS011;15662;49.128;8.520;2023-02-01T06:06:52;3.97;;;2.80;;
28427;SDS011;15662;49.128;8.520;2023-02-01T06:09:20;4.25;;;2.50;;
28427;SDS011;15662;49.128;8.520;2023-02-01T06:11:48;2.95;;;2.33;;
28427;SDS011;15662;49.128;8.520;2023-02-01T06:14:16;2.58;;;2.38;;
28427;SDS011;15662;49.128;8.520;2023-02-01T06:16:44;4.63;;;2.63;;
28427;SDS011;15662;49.128;8.520;2023-02-01T06:19:13;4.72;;;2.90;;
28427;SDS011;15662;49.128;8.520;2023-02-01T06:21:41;2.72;;;2.53;;
28427;SDS011;15662;49.128;8.520;2023-02-01T06:24:09;3.70;;;2.80;;
28427;SDS011;15662;49.128;8.520;2023-02-01T06:26:37;3.42;;;2.80;;
28427;SDS011;15662;49.128;8.520;2023-02-01T06:29:08;3.90;;;2.97;;
28427;SDS011;15662;49.128;8.520;2023-02-01T06:31:37;3.50;;;3.10;;
28427;SDS011;15662;49.128;8.520;2023-02-01T06:34:05;3.08;;;2.70;;
28427;SDS011;15662;49.128;8.520;2023-02-01T06:36:33;2.83;;;2.55;;
28427;SDS011;15662;49.128;8.520;2023-02-01T06:39:01;3.55;;;3.00;;
28427;SDS011;15662;49.128;8.520;2023-02-01T06:41:29;3.58;;;2.50;;
28427;SDS011;15662;49.128;8.520;2023-02-01T06:43:57;3.45;;;2.80;;
28427;SDS011;15662;49.128;8.520;2023-02-01T06:46:24;3.28;;;2.97;;
28427;SDS011;15662;49.128;8.520;2023-02-01T06:48:52;3.92;;;2.90;;
28427;SDS011;15662;49.128;8.520;2023-02-01T06:51:23;4.03;;;2.80;;
28427;SDS011;15662;49.128;8.520;2023-02-01T06:53:53;4.20;;;3.10;;
28427;SDS011;15662;49.128;8.520;2023-02-01T06:56:21;3.20;;;2.75;;
28427;SDS011;15662;49.128;8.520;2023-02-01T06:58:50;4.97;;;3.13;;
28427;SDS011;15662;49.128;8.520;2023-02-01T07:01:18;3.95;;;3.00;;
28427;SDS011;15662;49.128;8.520;2023-02-01T07:03:49;7.45;;;3.45;;
28427;SDS011;15662;49.128;8.520;2023-02-01T07:06:20;3.80;;;2.92;;
28427;SDS011;15662;49.128;8.520;2023-02-01T07:08:48;3.13;;;2.83;;
28427;SDS011;15662;49.128;8.520;2023-02-01T07:11:17;5.32;;;3.00;;
28427;SDS011;15662;49.128;8.520;2023-02-01T07:13:45;6.13;;;3.20;;
28427;SDS011;15662;49.128;8.520;2023-02-01T07:16:17;5.65;;;3.33;;
28427;SDS011;15662;49.128;8.520;2023-02-01T07:18:47;4.05;;;3.28;;
28427;SDS011;15662;49.128;8.520;2023-02-01T07:21:18;4.80;;;3.00;;
28427;SDS011;15662;49.128;8.520;2023-02-01T07:23:47;3.45;;;3.15;;
28427;SDS011;15662;49.128;8.520;2023-02-01T07:26:14;3.97;;;3.30;;
28427;SDS011;15662;49.128;8.520;2023-02-01T07:28:43;5.97;;;3.47;;
28427;SDS011;15662;49.128;8.520;2023-02-01T07:31:12;7.03;;;3.35;;
28427;SDS011;15662;49.128;8.520;2023-02-01T07:33:45;5.28;;;3.25;;
28427;SDS011;15662;49.128;8.520;2023-02-01T07:36:14;6.05;;;3.30;;
28427;SDS011;15662;49.128;8.520;2023-02-01T07:38:44;5.13;;;3.27;;
28427;SDS011;15662;49.128;8.520;2023-02-01T07:41:14;4.43;;;3.30;;
28427;SDS011;15662;49.128;8.520;2023-02-01T07:43:42;4.40;;;3.20;;
28427;SDS011;15662;49.128;8.520;2023-02-01T07:46:10;7.10;;;3.10;;
28427;SDS011;15662;49.128;8.520;2023-02-01T07:48:38;3.65;;;2.78;;
28427;SDS011;15662;49.128;8.520;2023-02-01T07:51:10;6.25;;;3.13;;
28427;SDS011;15662;49.128;8.520;2023-02-01T07:53:41;5.43;;;2.85;;
28427;SDS011;15662;49.128;8.520;2023-02-01T07:56:11;4.30;;;2.80;;
28427;SDS011;15662;49.128;8.520;2023-02-01T07:58:42;8.07;;;3.15;;
28427;SDS011;15662;49.128;8.520;2023-02-01T08:01:14;4.10;;;2.80;;
28427;SDS011;15662;49.128;8.520;2023-02-01T08:03:54;3.75;;;3.13;;
28427;SDS011;15662;49.128;8.520;2023-02-01T08:06:32;4.43;;;3.13;;
28427;SDS011;15662;49.128;8.520;2023-02-01T08:09:02;6.10;;;3.15;;
28427;SDS011;15662;49.128;8.520;2023-02-01T08:11:34;4.65;;;3.00;;
28427;SDS011;15662;49.128;8.520;2023-02-01T08:14:04;3.30;;;2.72;;
28427;SDS011;15662;49.128;8.520;2023-02-01T08:16:33;6.28;;;3.15;;
28427;SDS011;15662;49.128;8.520;2023-02-01T08:19:03;6.22;;;2.97;;
28427;SDS011;15662;49.128;8.520;2023-02-01T08:21:31;6.70;;;2.92;;
28427;SDS011;15662;49.128;8.520;2023-02-01T08:24:05;4.88;;;2.83;;
28427;SDS011;15662;49.128;8.520;2023-02-01T08:26:36;6.32;;;3.13;;
28427;SDS011;15662;49.128;8.520;2023-02-01T08:29:04;6.25;;;3.28;;
28427;SDS011;15662;49.128;8.520;2023-02-01T08:31:35;6.00;;;3.08;;
28427;SDS011;15662;49.128;8.520;2023-02-01T08:34:07;5.75;;;3.30;;
28427;SDS011;15662;49.128;8.520;2023-02-01T08:36:35;6.55;;;3.13;;
28427;SDS011;15662;49.128;8.520;2023-02-01T08:39:05;4.70;;;3.03;;
28427;SDS011;15662;49.128;8.520;2023-02-01T08:41:36;7.13;;;3.40;;
28427;SDS011;15662;49.128;8.520;2023-02-01T08:44:04;5.40;;;2.90;;
28427;SDS011;15662;49.128;8.520;2023-02-01T08:46:33;5.32;;;2.78;;
28427;SDS011;15662;49.128;8.520;2023-02-01T08:49:02;6.63;;;2.97;;
28427;SDS011;15662;49.128;8.520;2023-02-01T08:51:49;6.50;;;3.20;;
28427;SDS011;15662;49.128;8.520;2023-02-01T08:54:17;7.18;;;3.10;;
28427;SDS011;15662;49.128;8.520;2023-02-01T08:56:45;6.15;;;3.30;;
28427;SDS011;15662;49.128;8.520;2023-02-01T08:59:13;6.50;;;3.08;;
28427;SDS011;15662;49.128;8.520;2023-02-01T09:01:40;5.65;;;2.88;;
28427;SDS011;15662;49.128;8.520;2023-02-01T09:04:09;7.00;;;3.45;;
28427;SDS011;15662;49.128;8.520;2023-02-01T09:06:37;5.90;;;3.03;;
28427;SDS011;15662;49.128;8.520;2023-02-01T09:09:08;4.72;;;3.03;;
28427;SDS011;15662;49.128;8.520;2023-02-01T09:11:36;7.22;;;2.97;;
28427;SDS011;15662;49.128;8.520;2023-02-01T09:14:04;5.18;;;2.22;;
28427;SDS011;15662;49.128;8.520;2023-02-01T09:16:31;8.18;;;3.00;;
28427;SDS011;15662;49.128;8.520;2023-02-01T09:18:59;5.47;;;2.83;;
28427;SDS011;15662;49.128;8.520;2023-02-01T09:21:47;5.80;;;2.53;;
28427;SDS011;15662;49.128;8.520;2023-02-01T09:24:15;5.63;;;2.75;;
28427;SDS011;15662;49.128;8.520;2023-02-01T09:26:43;12.10;;;3.20;;
28427;SDS011;15662;49.128;8.520;2023-02-01T09:29:11;7.40;;;2.75;;
28427;SDS011;15662;49.128;8.520;2023-02-01T09:31:39;8.30;;;3.28;;
28427;SDS011;15662;49.128;8.520;2023-02-01T09:34:21;5.97;;;2.65;;
28427;SDS011;15662;49.128;8.520;2023-02-01T09:36:49;6.50;;;2.90;;
28427;SDS011;15662;49.128;8.520;2023-02-01T09:39:17;9.73;;;2.50;;
28427;SDS011;15662;49.128;8.520;2023-02-01T09:41:48;6.78;;;2.65;;
28427;SDS011;15662;49.128;8.520;2023-02-01T09:47:43;7.13;;;2.88;;
28427;SDS011;15662;49.128;8.520;2023-02-01T09:50:37;8.93;;;2.40;;
28427;SDS011;15662;49.128;8.520;2023-02-01T09:53:28;9.85;;;3.10;;
28427;SDS011;15662;49.128;8.520;2023-02-01T09:56:11;9.15;;;3.35;;
28427;SDS011;15662;49.128;8.520;2023-02-01T09:58:51;9.70;;;3.35;;
28427;SDS011;15662;49.128;8.520;2023-02-01T10:01:29;7.80;;;2.92;;
28427;SDS011;15662;49.128;8.520;2023-02-01T10:04:02;10.07;;;2.67;;
28427;SDS011;15662;49.128;8.520;2023-02-01T10:09:45;6.68;;;2.58;;
28427;SDS011;15662;49.128;8.520;2023-02-01T10:26:45;10.90;;;2.85;;
28427;SDS011;15662;49.128;8.520;2023-02-01T10:29:36;12.73;;;3.13;;
28427;SDS011;15662;49.128;8.520;2023-02-01T10:32:18;11.93;;;2.60;;
28427;SDS011;15662;49.128;8.520;2023-02-01T10:34:58;7.90;;;2.42;;
28427;SDS011;15662;49.128;8.520;2023-02-01T10:37:53;9.57;;;3.08;;
28427;SDS011;15662;49.128;8.520;2023-02-01T10:40:24;14.90;;;2.72;;
28427;SDS011;15662;49.128;8.520;2023-02-01T10:42:57;8.27;;;2.93;;
28427;SDS011;15662;49.128;8.520;2023-02-01T10:45:28;9.30;;;2.58;;
28427;SDS011;15662;49.128;8.520;2023-02-01T10:47:59;10.93;;;2.55;;
28427;SDS011;15662;49.128;8.520;2023-02-01T10:53:38;9.32;;;2.60;;
28427;SDS011;15662;49.128;8.520;2023-02-01T10:56:29;8.13;;;2.83;;
28427;SDS011;15662;49.128;8.520;2023-02-01T10:59:02;11.65;;;2.70;;
28427;SDS011;15662;49.128;8.520;2023-02-01T11:01:36;9.23;;;2.50;;
28427;SDS011;15662;49.128;8.520;2023-02-01T11:04:26;9.98;;;2.72;;
28427;SDS011;15662;49.128;8.520;2023-02-01T11:07:06;12.68;;;2.63;;
28427;SDS011;15662;49.128;8.520;2023-02-01T11:09:51;7.95;;;2.65;;
28427;SDS011;15662;49.128;8.520;2023-02-01T11:17:51;11.20;;;2.55;;
28427;SDS011;15662;49.128;8.520;2023-02-01T11:23:00;12.88;;;2.63;;
28427;SDS011;15662;49.128;8.520;2023-02-01T11:25:29;9.20;;;2.75;;
28427;SDS011;15662;49.128;8.520;2023-02-01T11:28:02;8.95;;;2.80;;
28427;SDS011;15662;49.128;8.520;2023-02-01T11:33:07;7.90;;;2.28;;
28427;SDS011;15662;49.128;8.520;2023-02-01T11:35:44;11.13;;;2.20;;
28427;SDS011;15662;49.128;8.520;2023-02-01T11:38:25;9.23;;;2.50;;
28427;SDS011;15662;49.128;8.520;2023-02-01T11:41:42;8.73;;;2.67;;
28427;SDS011;15662;49.128;8.520;2023-02-01T11:43:58;10.38;;;2.60;;
28427;SDS011;15662;49.128;8.520;2023-02-01T11:46:29;12.20;;;2.42;;
28427;SDS011;15662;49.128;8.520;2023-02-01T12:01:00;10.50;;;2.45;;
28427;SDS011;15662;49.128;8.520;2023-02-01T12:06:31;7.68;;;2.63;;
28427;SDS011;15662;49.128;8.520;2023-02-01T12:12:04;13.52;;;2.65;;
28427;SDS011;15662;49.128;8.520;2023-02-01T12:18:14;9.00;;;2.50;;
28427;SDS011;15662;49.128;8.520;2023-02-01T12:24:23;11.13;;;2.60;;
28427;SDS011;15662;49.128;8.520;2023-02-01T12:30:07;11.63;;;2.60;;
28427;SDS011;15662;49.128;8.520;2023-02-01T12:33:11;11.88;;;2.67;;
28427;SDS011;15662;49.128;8.520;2023-02-01T12:39:10;10.40;;;2.78;;
28427;SDS011;15662;49.128;8.520;2023-02-01T12:42:03;10.57;;;2.38;;
28427;SDS011;15662;49.128;8.520;2023-02-01T12:44:51;11.77;;;2.55;;
28427;SDS011;15662;49.128;8.520;2023-02-01T12:47:47;11.77;;;2.92;;
28427;SDS011;15662;49.128;8.520;2023-02-01T12:50:36;11.27;;;2.70;;
28427;SDS011;15662;49.128;8.520;2023-02-01T12:53:19;10.00;;;2.47;;
28427;SDS011;15662;49.128;8.520;2023-02-01T12:59:26;9.48;;;2.47;;
28427;SDS011;15662;49.128;8.520;2023-02-01T13:02:16;13.25;;;2.60;;
28427;SDS011;15662;49.128;8.520;2023-02-01T13:05:44;7.88;;;2.35;;
28427;SDS011;15662;49.128;8.520;2023-02-01T13:08:17;8.93;;;2.22;;
28427;SDS011;15662;49.128;8.520;2023-02-01T13:11:18;13.52;;;2.58;;
28427;SDS011;15662;49.128;8.520;2023-02-01T13:14:10;17.38;;;2.97;;
28427;SDS011;15662;49.128;8.520;2023-02-01T13:16:52;10.02;;;2.40;;
28427;SDS011;15662;49.128;8.520;2023-02-01T13:19:42;12.38;;;2.55;;
28427;SDS011;15662;49.128;8.520;2023-02-01T13:22:37;13.25;;;2.33;;
28427;SDS011;15662;49.128;8.520;2023-02-01T13:25:12;9.68;;;2.88;;
28427;SDS011;15662;49.128;8.520;2023-02-01T13:27:55;6.80;;;2.35;;
28427;SDS011;15662;49.128;8.520;2023-02-01T13:30:59;9.13;;;2.28;;
28427;SDS011;15662;49.128;8.520;2023-02-01T13:42:50;12.63;;;2.45;;
28427;SDS011;15662;49.128;8.520;2023-02-01T13:45:29;9.70;;;2.97;;
28427;SDS011;15662;49.128;8.520;2023-02-01T13:48:03;7.90;;;1.98;;
28427;SDS011;15662;49.128;8.520;2023-02-01T13:50:36;8.30;;;2.15;;
28427;SDS011;15662;49.128;8.520;2023-02-01T13:55:45;10.25;;;2.85;;
28427;SDS011;15662;49.128;8.520;2023-02-01T14:03:53;8.68;;;2.33;;
28427;SDS011;15662;49.128;8.520;2023-02-01T14:12:39;8.55;;;2.53;;
28427;SDS011;15662;49.128;8.520;2023-02-01T14:15:17;9.68;;;2.47;;
28427;SDS011;15662;49.128;8.520;2023-02-01T14:17:54;14.18;;;2.80;;
28427;SDS011;15662;49.128;8.520;2023-02-01T14:20:39;9.48;;;2.92;;
28427;SDS011;15662;49.128;8.520;2023-02-01T14:23:12;12.68;;;2.88;;
28427;SDS011;15662;49.128;8.520;2023-02-01T14:25:44;8.80;;;2.58;;
28427;SDS011;15662;49.128;8.520;2023-02-01T14:28:25;12.90;;;2.38;;
28427;SDS011;15662;49.128;8.520;2023-02-01T14:30:56;8.40;;;2.75;;
28427;SDS011;15662;49.128;8.520;2023-02-01T14:33:27;10.50;;;2.40;;
28427;SDS011;15662;49.128;8.520;2023-02-01T14:35:58;8.35;;;2.10;;
28427;SDS011;15662;49.128;8.520;2023-02-01T14:38:40;9.65;;;2.33;;
28427;SDS011;15662;49.128;8.520;2023-02-01T14:41:25;7.90;;;2.50;;
28427;SDS011;15662;49.128;8.520;2023-02-01T14:52:50;7.63;;;2.22;;
28427;SDS011;15662;49.128;8.520;2023-02-01T14:58:21;9.07;;;2.50;;
28427;SDS011;15662;49.128;8.520;2023-02-01T15:01:26;6.60;;;2.40;;
28427;SDS011;15662;49.128;8.520;2023-02-01T15:04:15;10.20;;;2.45;;
28427;SDS011;15662;49.128;8.520;2023-02-01T15:06:49;11.73;;;2.63;;
28427;SDS011;15662;49.128;8.520;2023-02-01T15:09:25;9.32;;;2.33;;
28427;SDS011;15662;49.128;8.520;2023-02-01T15:12:27;7.97;;;2.20;;
28427;SDS011;15662;49.128;8.520;2023-02-01T15:15:14;9.25;;;2.35;;
28427;SDS011;15662;49.128;8.520;2023-02-01T15:17:54;7.63;;;2.28;;
28427;SDS011;15662;49.128;8.520;2023-02-01T15:20:30;10.55;;;2.53;;
28427;SDS011;15662;49.128;8.520;2023-02-01T15:23:01;5.25;;;2.00;;
28427;SDS011;15662;49.128;8.520;2023-02-01T15:25:34;10.48;;;2.60;;
28427;SDS011;15662;49.128;8.520;2023-02-01T15:28:08;6.38;;;2.50;;
28427;SDS011;15662;49.128;8.520;2023-02-01T15:30:50;10.93;;;2.97;;
28427;SDS011;15662;49.128;8.520;2023-02-01T15:33:30;9.48;;;2.22;;
28427;SDS011;15662;49.128;8.520;2023-02-01T15:36:11;8.43;;;2.40;;
28427;SDS011;15662;49.128;8.520;2023-02-01T15:38:50;8.93;;;2.20;;
28427;SDS011;15662;49.128;8.520;2023-02-01T15:41:59;10.43;;;2.47;;
28427;SDS011;15662;49.128;8.520;2023-02-01T15:44:45;10.32;;;2.40;;
28427;SDS011;15662;49.128;8.520;2023-02-01T15:49:53;7.57;;;2.42;;
28427;SDS011;15662;49.128;8.520;2023-02-01T15:52:27;13.65;;;3.55;;
28427;SDS011;15662;49.128;8.520;2023-02-01T15:54:59;12.07;;;3.08;;
28427;SDS011;15662;49.128;8.520;2023-02-01T15:57:33;11.68;;;2.65;;
28427;SDS011;15662;49.128;8.520;2023-02-01T16:00:08;11.15;;;2.22;;
28427;SDS011;15662;49.128;8.520;2023-02-01T16:03:20;13.93;;;2.88;;
28427;SDS011;15662;49.128;8.520;2023-02-01T16:05:56;10.63;;;2.90;;
28427;SDS011;15662;49.128;8.520;2023-02-01T16:08:28;10.75;;;2.55;;
28427;SDS011;15662;49.128;8.520;2023-02-01T16:13:35;11.32;;;2.55;;
28427;SDS011;15662;49.128;8.520;2023-02-01T16:16:03;8.90;;;2.13;;
28427;SDS011;15662;49.128;8.520;2023-02-01T16:18:35;7.65;;;2.40;;
28427;SDS011;15662;49.128;8.520;2023-02-01T16:21:02;11.23;;;2.85;;
28427;SDS011;15662;49.128;8.520;2023-02-01T16:23:31;11.40;;;2.80;;
28427;SDS011;15662;49.128;8.520;2023-02-01T16:25:59;11.13;;;4.03;;
28427;SDS011;15662;49.128;8.520;2023-02-01T16:28:27;8.80;;;3.65;;
28427;SDS011;15662;49.128;8.520;2023-02-01T16:30:54;10.60;;;2.83;;
28427;SDS011;15662;49.128;8.520;2023-02-01T16:33:23;11.27;;;3.42;;
28427;SDS011;15662;49.128;8.520;2023-02-01T16:35:51;11.77;;;2.85;;
28427;SDS011;15662;49.128;8.520;2023-02-01T16:38:22;7.05;;;2.65;;
28427;SDS011;15662;49.128;8.520;2023-02-01T16:40:50;9.85;;;2.17;;
28427;SDS011;15662;49.128;8.520;2023-02-01T16:43:22;5.93;;;2.47;;
28427;SDS011;15662;49.128;8.520;2023-02-01T16:45:53;10.85;;;2.53;;
28427;SDS011;15662;49.128;8.520;2023-02-01T16:48:27;8.77;;;2.90;;
28427;SDS011;15662;49.128;8.520;2023-02-01T16:51:00;7.40;;;2.45;;
28427;SDS011;15662;49.128;8.520;2023-02-01T16:53:39;12.35;;;2.83;;
28427;SDS011;15662;49.128;8.520;2023-02-01T16:56:23;9.10;;;2.60;;
28427;SDS011;15662;49.128;8.520;2023-02-01T16:58:57;7.70;;;2.10;;
28427;SDS011;15662;49.128;8.520;2023-02-01T17:01:25;9.00;;;2.42;;
28427;SDS011;15662;49.128;8.520;2023-02-01T17:03:54;10.85;;;2.70;;
28427;SDS011;15662;49.128;8.520;2023-02-01T17:06:23;5.88;;;1.98;;
28427;SDS011;15662;49.128;8.520;2023-02-01T17:08:55;7.32;;;2.30;;
28427;SDS011;15662;49.128;8.520;2023-02-01T17:11:29;8.63;;;2.05;;
28427;SDS011;15662;49.128;8.520;2023-02-01T17:14:04;10.13;;;2.85;;
28427;SDS011;15662;49.128;8.520;2023-02-01T17:16:48;10.00;;;2.70;;
28427;SDS011;15662;49.128;8.520;2023-02-01T17:19:19;10.02;;;2.50;;
28427;SDS011;15662;49.128;8.520;2023-02-01T17:21:51;10.27;;;2.35;;
28427;SDS011;15662;49.128;8.520;2023-02-01T17:24:26;9.65;;;2.55;;
28427;SDS011;15662;49.128;8.520;2023-02-01T17:27:14;9.77;;;2.42;;
28427;SDS011;15662;49.128;8.520;2023-02-01T17:29:44;10.57;;;2.85;;
28427;SDS011;15662;49.128;8.520;2023-02-01T17:32:17;11.23;;;3.13;;
28427;SDS011;15662;49.128;8.520;2023-02-01T17:34:49;10.80;;;2.85;;
28427;SDS011;15662;49.128;8.520;2023-02-01T17:37:26;9.27;;;2.72;;
28427;SDS011;15662;49.128;8.520;2023-02-01T17:39:59;11.20;;;2.55;;
28427;SDS011;15662;49.128;8.520;2023-02-01T17:42:28;7.57;;;2.40;;
28427;SDS011;15662;49.128;8.520;2023-02-01T17:44:59;9.68;;;2.10;;
28427;SDS011;15662;49.128;8.520;2023-02-01T17:47:37;9.77;;;2.77;;
28427;SDS011;15662;49.128;8.520;2023-02-01T17:50:05;10.73;;;2.50;;
28427;SDS011;15662;49.128;8.520;2023-02-01T17:52:34;10.88;;;2.58;;
28427;SDS011;15662;49.128;8.520;2023-02-01T17:55:04;9.27;;;2.72;;
28427;SDS011;15662;49.128;8.520;2023-02-01T17:57:49;10.63;;;2.60;;
28427;SDS011;15662;49.128;8.520;2023-02-01T18:00:17;9.68;;;2.20;;